Time;durP1;ratioP1;P1;durP2;ratioP2;P2;SDS_P1;SDS_P2;PMS_P1;PMS_P2;Temp;Humidity;BMP_temperature;BMP_pressure;BME280_temperature;BME280_humidity;BME280_pressure;Samples;Min_cycle;Max_cycle;Signal;HPM_P1;HPM_P2
2020/12/16 00:00:41;;;;;;;63.40;32.97;;;7.20;99.90;;;;;;5110530;28;20645;-85
2020/12/16 00:03:08;;;;;;;56.47;31.10;;;7.20;99.90;;;;;;5110765;28;20271;-85
2020/12/16 00:05:34;;;;;;;129.53;61.57;;;7.20;99.90;;;;;;5110051;28;20293;-84
2020/12/16 00:08:00;;;;;;;34.27;22.23;;;7.20;99.90;;;;;;5109884;28;20214;-81
2020/12/16 00:10:28;;;;;;;56.87;32.43;;;7.20;99.90;;;;;;5108991;28;20298;-80
2020/12/16 00:12:54;;;;;;;60.70;33.53;;;7.20;99.90;;;;;;5108893;28;20210;-80
2020/12/16 00:15:20;;;;;;;25.30;18.93;;;7.20;99.90;;;;;;5108701;28;20292;-80
2020/12/16 00:17:49;;;;;;;44.60;26.80;;;7.10;99.90;;;;;;5108885;28;20233;-80
2020/12/16 00:20:15;;;;;;;53.67;31.73;;;7.20;99.90;;;;;;5108715;28;20201;-79
2020/12/16 00:22:42;;;;;;;30.50;20.57;;;7.20;99.90;;;;;;5109292;28;20240;-79
2020/12/16 00:25:10;;;;;;;93.93;53.97;;;7.20;99.90;;;;;;5109626;28;20205;-80
2020/12/16 00:27:37;;;;;;;65.60;40.43;;;7.20;99.90;;;;;;5109054;28;20575;-80
2020/12/16 00:30:06;;;;;;;25.17;17.67;;;7.20;99.90;;;;;;5109045;28;20556;-81
2020/12/16 00:32:41;;;;;;;18.07;15.10;;;7.20;99.90;;;;;;5108964;28;20239;-81
2020/12/16 00:35:09;;;;;;;61.97;48.50;;;7.20;99.90;;;;;;5108793;28;20674;-81
2020/12/16 00:37:35;;;;;;;32.77;27.47;;;7.20;99.90;;;;;;5109036;28;20301;-81
2020/12/16 00:40:03;;;;;;;23.30;17.13;;;7.20;99.90;;;;;;5109008;28;20365;-81
2020/12/16 00:42:29;;;;;;;25.10;21.33;;;7.20;99.90;;;;;;5108627;28;20748;-83
2020/12/16 00:44:56;;;;;;;27.83;22.80;;;7.20;99.90;;;;;;5109335;28;20206;-82
2020/12/16 00:47:23;;;;;;;18.47;16.57;;;7.20;99.90;;;;;;5108782;28;20216;-82
2020/12/16 00:49:49;;;;;;;21.27;15.60;;;7.30;99.90;;;;;;5108702;28;20212;-82
2020/12/16 00:52:17;;;;;;;17.13;14.00;;;7.20;99.90;;;;;;5101373;28;20700;-82
2020/12/16 00:54:44;;;;;;;17.27;14.27;;;7.30;99.90;;;;;;5097194;28;20242;-81
2020/12/16 00:57:10;;;;;;;17.07;13.67;;;7.30;99.90;;;;;;5089257;28;20546;-81
2020/12/16 00:59:37;;;;;;;17.23;12.73;;;7.30;99.90;;;;;;5092172;28;20768;-87
2020/12/16 01:02:05;;;;;;;19.90;14.27;;;7.40;99.90;;;;;;5092728;28;20325;-82
2020/12/16 01:04:31;;;;;;;16.57;13.37;;;7.40;99.90;;;;;;5092075;28;20679;-81
2020/12/16 01:06:57;;;;;;;15.73;12.30;;;7.40;99.90;;;;;;5092579;28;20363;-81
2020/12/16 01:09:24;;;;;;;15.37;12.67;;;7.40;99.90;;;;;;5091987;28;20752;-82
2020/12/16 01:11:50;;;;;;;17.97;13.03;;;7.40;99.90;;;;;;5091996;28;20297;-80
2020/12/16 01:14:16;;;;;;;17.23;13.87;;;7.50;99.90;;;;;;5092057;28;20207;-81
2020/12/16 01:16:43;;;;;;;18.47;14.33;;;7.50;99.90;;;;;;5091852;28;20202;-81
2020/12/16 01:19:10;;;;;;;23.13;15.97;;;7.50;99.90;;;;;;5091894;28;20206;-80
2020/12/16 01:21:37;;;;;;;19.87;14.63;;;7.50;99.90;;;;;;5092040;28;20595;-81
2020/12/16 01:24:05;;;;;;;18.33;14.47;;;7.60;99.90;;;;;;5092050;28;20207;-83
2020/12/16 01:26:37;;;;;;;19.67;15.57;;;7.60;99.90;;;;;;5091953;28;20206;-82
2020/12/16 01:29:03;;;;;;;19.60;14.47;;;7.60;99.90;;;;;;5091690;28;20198;-79
2020/12/16 01:31:37;;;;;;;20.27;15.37;;;7.60;99.90;;;;;;5091955;28;20199;-81
2020/12/16 01:34:03;;;;;;;22.40;15.80;;;7.60;99.90;;;;;;5092075;28;20255;-79
2020/12/16 01:36:30;;;;;;;19.07;15.30;;;7.60;99.90;;;;;;5091547;28;20669;-78
2020/12/16 01:38:57;;;;;;;18.93;14.33;;;7.70;99.90;;;;;;5091329;28;20728;-79
2020/12/16 01:41:24;;;;;;;17.57;14.10;;;7.70;99.90;;;;;;5091826;28;20306;-79
2020/12/16 01:43:51;;;;;;;20.03;15.00;;;7.70;99.90;;;;;;5091455;28;20739;-79
2020/12/16 01:46:17;;;;;;;23.50;15.80;;;7.70;99.90;;;;;;5091771;28;20245;-79
2020/12/16 01:48:44;;;;;;;20.07;15.10;;;7.70;99.90;;;;;;5091544;28;20203;-79
2020/12/16 01:51:16;;;;;;;18.73;14.67;;;7.70;99.90;;;;;;5091455;28;20214;-78
2020/12/16 01:53:45;;;;;;;21.63;15.90;;;7.70;99.90;;;;;;5091048;28;20464;-80
2020/12/16 01:56:13;;;;;;;19.47;15.30;;;7.70;99.90;;;;;;5091485;28;20352;-80
2020/12/16 01:58:42;;;;;;;22.77;15.87;;;7.70;99.90;;;;;;5091167;28;20255;-80
2020/12/16 02:01:09;;;;;;;20.30;14.73;;;7.70;99.90;;;;;;5091093;28;20325;-80
2020/12/16 02:03:39;;;;;;;21.07;15.80;;;7.80;99.90;;;;;;5091585;28;20214;-80
2020/12/16 02:06:08;;;;;;;22.53;15.93;;;7.80;99.90;;;;;;5090813;28;20207;-79
2020/12/16 02:08:38;;;;;;;20.67;15.43;;;7.80;99.90;;;;;;5091216;28;20209;-79
2020/12/16 02:11:05;;;;;;;21.97;16.67;;;7.80;99.90;;;;;;5091516;28;20348;-79
2020/12/16 02:13:31;;;;;;;20.07;16.13;;;7.80;99.90;;;;;;5091316;28;20233;-79
2020/12/16 02:15:58;;;;;;;19.07;15.40;;;7.80;99.90;;;;;;5091182;28;20293;-80
2020/12/16 02:18:24;;;;;;;18.87;14.57;;;7.80;99.90;;;;;;5091174;28;20213;-79
2020/12/16 02:20:51;;;;;;;19.93;15.77;;;7.80;99.90;;;;;;5091000;28;20262;-79
2020/12/16 02:23:19;;;;;;;23.53;16.00;;;7.80;99.90;;;;;;5091770;28;20780;-80
2020/12/16 02:25:47;;;;;;;20.80;16.27;;;7.80;99.90;;;;;;5091189;28;20231;-79
2020/12/16 02:28:13;;;;;;;23.20;16.70;;;7.90;99.90;;;;;;5091915;28;20613;-81
2020/12/16 02:30:40;;;;;;;20.17;16.30;;;7.90;99.90;;;;;;5091741;28;20206;-80
2020/12/16 02:33:06;;;;;;;20.63;15.63;;;7.90;99.90;;;;;;5091671;28;20207;-82
2020/12/16 02:35:32;;;;;;;24.23;17.30;;;7.90;99.90;;;;;;5091265;28;20552;-79
2020/12/16 02:37:59;;;;;;;23.07;16.33;;;7.90;99.90;;;;;;5090991;28;20207;-79
2020/12/16 02:40:25;;;;;;;20.57;16.77;;;7.90;99.90;;;;;;5091174;28;20219;-82
2020/12/16 02:42:52;;;;;;;24.30;18.07;;;7.90;99.90;;;;;;5090740;28;20231;-79
2020/12/16 02:45:19;;;;;;;22.13;16.37;;;7.90;99.90;;;;;;5090588;28;20662;-79
2020/12/16 02:47:45;;;;;;;24.63;17.50;;;7.90;99.90;;;;;;5090379;28;21010;-79
2020/12/16 02:50:11;;;;;;;23.73;17.63;;;7.90;99.90;;;;;;5090187;28;20206;-79
2020/12/16 02:52:38;;;;;;;23.03;17.30;;;8.00;99.90;;;;;;5090306;28;20206;-80
2020/12/16 02:55:04;;;;;;;29.13;18.97;;;7.90;99.90;;;;;;5090074;28;20321;-80
2020/12/16 02:57:30;;;;;;;29.27;18.67;;;7.90;99.90;;;;;;5090463;28;20323;-81
2020/12/16 02:59:59;;;;;;;27.77;17.67;;;7.90;99.90;;;;;;5090300;28;20297;-79
2020/12/16 03:02:26;;;;;;;27.43;18.97;;;7.90;99.90;;;;;;5089926;28;20253;-80
2020/12/16 03:04:52;;;;;;;24.77;18.37;;;7.90;99.90;;;;;;5089792;28;20203;-79
2020/12/16 03:07:19;;;;;;;32.50;19.47;;;7.90;99.90;;;;;;5089976;28;20774;-80
2020/12/16 03:09:45;;;;;;;27.33;18.77;;;7.90;99.90;;;;;;5090026;28;20365;-80
2020/12/16 03:12:11;;;;;;;26.03;18.63;;;7.90;99.90;;;;;;5090231;28;20206;-79
2020/12/16 03:14:38;;;;;;;25.87;18.93;;;7.90;99.90;;;;;;5089902;28;20210;-81
2020/12/16 03:17:05;;;;;;;28.20;18.73;;;7.90;99.90;;;;;;5089790;28;20203;-80
2020/12/16 03:19:31;;;;;;;26.83;19.17;;;7.90;99.90;;;;;;5089093;28;20568;-81
2020/12/16 03:21:58;;;;;;;25.90;18.63;;;7.90;99.90;;;;;;5089507;28;20223;-80
2020/12/16 03:24:24;;;;;;;28.17;19.10;;;7.90;99.90;;;;;;5089820;28;20297;-80
2020/12/16 03:26:50;;;;;;;28.13;21.40;;;7.90;99.90;;;;;;5089546;28;20677;-80
2020/12/16 03:29:17;;;;;;;24.87;19.30;;;7.90;99.90;;;;;;5089473;28;20653;-80
2020/12/16 03:31:43;;;;;;;23.03;18.50;;;7.90;99.90;;;;;;5089556;28;20212;-80
2020/12/16 03:34:10;;;;;;;22.17;16.40;;;7.90;99.90;;;;;;5089876;28;20301;-79
2020/12/16 03:36:37;;;;;;;23.83;16.40;;;7.80;99.90;;;;;;5089628;28;20213;-79
2020/12/16 03:39:04;;;;;;;22.20;16.67;;;7.80;99.90;;;;;;5089162;28;20226;-80
2020/12/16 03:41:31;;;;;;;22.10;16.37;;;7.80;99.90;;;;;;5089561;28;20226;-79
2020/12/16 03:43:57;;;;;;;25.63;16.97;;;7.70;99.90;;;;;;5089550;28;20207;-80
2020/12/16 03:46:24;;;;;;;19.97;15.97;;;7.70;99.90;;;;;;5089392;28;20336;-80
2020/12/16 03:48:50;;;;;;;22.87;16.60;;;7.70;99.90;;;;;;5088935;28;20218;-80
2020/12/16 03:51:17;;;;;;;19.87;16.20;;;7.70;99.90;;;;;;5089184;28;20972;-80
2020/12/16 03:53:44;;;;;;;22.13;16.70;;;7.70;99.90;;;;;;5088415;28;20708;-80
2020/12/16 03:56:11;;;;;;;20.90;15.60;;;7.70;99.90;;;;;;5088869;28;20654;-80
2020/12/16 03:58:41;;;;;;;20.77;15.47;;;7.70;99.90;;;;;;5088704;28;20745;-80
2020/12/16 04:01:08;;;;;;;21.20;16.23;;;7.70;99.90;;;;;;5088872;28;20238;-79
2020/12/16 04:03:34;;;;;;;20.13;14.87;;;7.70;99.90;;;;;;5089026;28;20665;-79
2020/12/16 04:06:01;;;;;;;19.37;16.10;;;7.70;99.90;;;;;;5088744;28;20217;-79
2020/12/16 04:08:28;;;;;;;20.63;15.57;;;7.70;99.90;;;;;;5089069;28;20213;-80
2020/12/16 04:10:54;;;;;;;21.63;16.17;;;7.70;99.90;;;;;;5088602;28;20203;-79
2020/12/16 04:13:21;;;;;;;21.17;16.33;;;7.60;99.90;;;;;;5088731;28;20869;-79
2020/12/16 04:15:47;;;;;;;19.30;15.23;;;7.60;99.90;;;;;;5089257;28;20202;-83
2020/12/16 04:18:13;;;;;;;20.93;15.60;;;7.60;99.90;;;;;;5089295;28;20644;-82
2020/12/16 04:20:40;;;;;;;19.63;15.17;;;7.60;99.90;;;;;;5088866;28;20202;-79
2020/12/16 04:23:06;;;;;;;21.33;16.07;;;7.60;99.90;;;;;;5088953;28;20334;-79
2020/12/16 04:25:34;;;;;;;21.37;16.10;;;7.60;99.90;;;;;;5088515;28;20290;-79
2020/12/16 04:28:00;;;;;;;19.87;15.43;;;7.60;99.90;;;;;;5088409;28;20206;-79
2020/12/16 04:30:28;;;;;;;20.73;15.30;;;7.60;99.90;;;;;;5088259;28;20295;-79
2020/12/16 04:32:56;;;;;;;22.07;16.27;;;7.60;99.90;;;;;;5088575;28;20675;-81
2020/12/16 04:35:24;;;;;;;22.23;16.17;;;7.60;99.90;;;;;;5088204;28;20206;-82
2020/12/16 04:37:50;;;;;;;21.97;15.90;;;7.60;99.90;;;;;;5088044;28;20202;-82
2020/12/16 04:40:16;;;;;;;21.90;16.80;;;7.60;99.90;;;;;;5088482;28;20317;-82
2020/12/16 04:42:44;;;;;;;21.43;16.27;;;7.60;99.90;;;;;;5088321;28;20230;-82
2020/12/16 04:45:12;;;;;;;21.70;15.80;;;7.60;99.90;;;;;;5088650;28;20203;-82
2020/12/16 04:47:38;;;;;;;27.73;17.13;;;7.60;99.90;;;;;;5088128;28;20569;-81
2020/12/16 04:50:06;;;;;;;21.63;17.37;;;7.60;99.90;;;;;;5088733;28;20297;-83
2020/12/16 04:52:32;;;;;;;22.67;15.87;;;7.60;99.90;;;;;;5088396;28;20573;-80
2020/12/16 04:55:00;;;;;;;23.43;15.70;;;7.60;99.90;;;;;;5087929;28;20239;-80
2020/12/16 04:57:26;;;;;;;23.13;16.23;;;7.60;99.90;;;;;;5088577;28;20248;-80
2020/12/16 04:59:56;;;;;;;19.80;15.50;;;7.60;99.90;;;;;;5087888;28;20249;-80
2020/12/16 05:02:22;;;;;;;20.77;15.57;;;7.60;99.90;;;;;;5088301;28;20234;-82
2020/12/16 05:04:52;;;;;;;21.23;15.73;;;7.60;99.90;;;;;;5088214;28;20203;-80
2020/12/16 05:07:28;;;;;;;20.50;15.70;;;7.70;99.90;;;;;;5088145;28;20695;-82
2020/12/16 05:09:54;;;;;;;24.60;16.93;;;7.70;99.90;;;;;;5088035;28;20217;-84
2020/12/16 05:12:21;;;;;;;24.13;16.17;;;7.70;99.90;;;;;;5088571;28;20202;-83
2020/12/16 05:14:47;;;;;;;23.57;17.00;;;7.70;99.90;;;;;;5087980;28;20752;-83
2020/12/16 05:17:15;;;;;;;22.70;16.17;;;7.70;99.90;;;;;;5088115;28;20207;-83
2020/12/16 05:19:42;;;;;;;23.23;15.97;;;7.70;99.90;;;;;;5088032;28;20267;-83
2020/12/16 05:22:17;;;;;;;20.90;15.53;;;7.70;99.90;;;;;;5087626;28;20237;-81
2020/12/16 05:24:46;;;;;;;22.13;15.53;;;7.70;99.90;;;;;;5087914;28;20187;-81
2020/12/16 05:27:18;;;;;;;22.83;16.43;;;7.70;99.90;;;;;;5087954;28;20942;-81
2020/12/16 05:29:45;;;;;;;21.53;15.50;;;7.70;99.90;;;;;;5088057;28;20203;-81
2020/12/16 05:32:19;;;;;;;20.33;15.03;;;7.70;99.90;;;;;;5088022;28;20293;-81
2020/12/16 05:34:46;;;;;;;20.83;15.17;;;7.70;99.90;;;;;;5087793;28;20236;-80
2020/12/16 05:37:28;;;;;;;25.13;16.87;;;7.70;99.90;;;;;;5088056;28;20203;-80
2020/12/16 05:39:56;;;;;;;21.03;15.97;;;7.70;99.90;;;;;;5087757;28;20226;-80
2020/12/16 05:42:24;;;;;;;18.40;14.93;;;7.70;99.90;;;;;;5090305;28;20235;-80
2020/12/16 05:44:51;;;;;;;21.30;15.27;;;7.70;99.90;;;;;;5091612;28;20302;-81
2020/12/16 05:47:18;;;;;;;21.80;15.37;;;7.70;99.90;;;;;;5091672;28;20206;-81
2020/12/16 05:49:45;;;;;;;21.53;15.47;;;7.70;99.90;;;;;;5091463;28;20314;-81
2020/12/16 05:52:11;;;;;;;21.73;16.23;;;7.70;99.90;;;;;;5091483;28;20203;-82
2020/12/16 05:54:38;;;;;;;24.93;16.23;;;7.70;99.90;;;;;;5091011;28;20237;-81
2020/12/16 05:57:14;;;;;;;22.87;16.63;;;7.70;99.90;;;;;;5091541;28;20203;-80
2020/12/16 05:59:41;;;;;;;24.30;16.70;;;7.70;99.90;;;;;;5091571;28;20212;-80
2020/12/16 06:02:08;;;;;;;21.90;15.70;;;7.70;99.90;;;;;;5091144;28;20307;-81
2020/12/16 06:04:36;;;;;;;21.13;15.57;;;7.70;99.90;;;;;;5091317;28;20475;-80
2020/12/16 06:07:03;;;;;;;21.97;15.20;;;7.70;99.90;;;;;;5091375;28;20215;-79
2020/12/16 06:09:32;;;;;;;25.97;17.27;;;7.70;99.90;;;;;;5091121;28;20209;-80
2020/12/16 06:12:06;;;;;;;24.90;17.77;;;7.70;99.90;;;;;;5090890;28;20682;-81
2020/12/16 06:14:35;;;;;;;25.70;17.10;;;7.80;99.90;;;;;;5091274;28;20199;-82
2020/12/16 06:17:09;;;;;;;26.57;17.03;;;7.80;99.90;;;;;;5091003;28;20665;-80
2020/12/16 06:19:43;;;;;;;22.87;16.40;;;7.80;99.90;;;;;;5090694;28;20198;-80
2020/12/16 06:22:09;;;;;;;24.10;16.43;;;7.80;99.90;;;;;;5091751;28;20269;-85
2020/12/16 06:24:42;;;;;;;23.50;17.13;;;7.80;99.90;;;;;;5091909;28;20203;-85
2020/12/16 06:27:10;;;;;;;22.70;15.77;;;7.80;99.90;;;;;;5091632;28;20202;-84
2020/12/16 06:29:41;;;;;;;31.07;18.57;;;7.80;99.90;;;;;;5091085;28;20211;-81
2020/12/16 06:32:16;;;;;;;28.80;18.40;;;7.80;99.90;;;;;;5090448;28;20268;-81
2020/12/16 06:34:49;;;;;;;30.23;18.67;;;7.90;99.90;;;;;;5090322;28;20190;-82
2020/12/16 06:37:16;;;;;;;28.53;17.30;;;7.80;99.90;;;;;;5090710;28;20195;-81
2020/12/16 06:39:42;;;;;;;24.47;16.50;;;7.90;99.90;;;;;;5090607;28;20229;-82
2020/12/16 06:42:08;;;;;;;29.57;19.00;;;7.90;99.90;;;;;;5090415;28;20223;-81
2020/12/16 06:44:35;;;;;;;32.20;19.03;;;7.90;99.90;;;;;;5090516;28;20214;-81
2020/12/16 06:47:03;;;;;;;29.10;18.90;;;7.90;99.90;;;;;;5089888;28;20215;-82
2020/12/16 06:49:41;;;;;;;32.27;18.87;;;7.90;99.90;;;;;;5090194;28;20211;-82
2020/12/16 06:52:10;;;;;;;34.13;20.00;;;7.90;99.90;;;;;;5090375;28;20568;-81
2020/12/16 06:54:41;;;;;;;33.73;20.07;;;7.90;99.90;;;;;;5090049;28;20326;-82
2020/12/16 06:57:13;;;;;;;29.03;19.30;;;7.90;99.90;;;;;;5090508;28;20222;-80
2020/12/16 06:59:57;;;;;;;27.50;18.27;;;7.90;99.90;;;;;;5090148;28;20203;-82
2020/12/16 07:02:26;;;;;;;22.93;17.20;;;7.90;99.90;;;;;;5090396;28;20302;-82
2020/12/16 07:04:52;;;;;;;22.60;16.00;;;7.80;99.90;;;;;;5089907;28;20615;-82
2020/12/16 07:07:55;;;;;;;26.73;17.20;;;7.80;99.90;;;;;;5089963;28;20669;-83
2020/12/16 07:10:47;;;;;;;23.50;15.60;;;7.80;99.90;;;;;;5089966;28;20201;-82
2020/12/16 07:13:34;;;;;;;22.53;15.90;;;7.80;99.90;;;;;;5090176;28;20347;-82
2020/12/16 07:16:05;;;;;;;24.00;16.20;;;7.80;99.90;;;;;;5084942;28;20211;-82
2020/12/16 07:18:53;;;;;;;25.60;16.53;;;7.80;99.90;;;;;;5090027;28;20324;-82
2020/12/16 07:21:31;;;;;;;27.27;16.57;;;7.80;99.90;;;;;;5089799;28;20194;-82
2020/12/16 07:24:13;;;;;;;25.93;16.67;;;7.80;99.90;;;;;;5089726;28;20195;-82
2020/12/16 07:26:43;;;;;;;25.03;16.47;;;7.80;99.90;;;;;;5087508;28;20203;-80
2020/12/16 07:29:28;;;;;;;23.80;14.90;;;7.80;99.90;;;;;;5089712;28;20194;-79
2020/12/16 07:31:56;;;;;;;20.87;15.80;;;7.80;99.90;;;;;;5089560;28;20253;-80
2020/12/16 07:34:23;;;;;;;24.63;16.23;;;7.80;99.90;;;;;;5089530;28;20286;-80
2020/12/16 07:36:54;;;;;;;23.63;15.17;;;7.80;99.90;;;;;;5089167;28;20263;-81
2020/12/16 07:39:20;;;;;;;25.77;16.43;;;7.80;99.90;;;;;;5089375;28;20317;-80
2020/12/16 07:41:49;;;;;;;25.43;17.37;;;7.90;99.90;;;;;;5089428;28;20226;-80
2020/12/16 07:44:15;;;;;;;25.77;16.40;;;7.90;99.90;;;;;;5088986;28;20206;-79
2020/12/16 07:46:42;;;;;;;22.27;16.10;;;7.90;99.90;;;;;;5089282;28;20212;-80
2020/12/16 07:49:11;;;;;;;23.37;16.17;;;7.80;99.90;;;;;;5089285;28;20202;-80
2020/12/16 07:51:38;;;;;;;26.37;16.13;;;7.80;99.90;;;;;;5089315;28;20219;-80
2020/12/16 07:54:05;;;;;;;25.03;16.40;;;7.80;99.90;;;;;;5088698;28;20318;-79
2020/12/16 07:56:31;;;;;;;26.37;17.53;;;7.80;99.90;;;;;;5088847;28;20210;-81
2020/12/16 07:59:09;;;;;;;25.00;17.07;;;7.80;99.90;;;;;;5089065;28;20263;-81
2020/12/16 08:01:35;;;;;;;26.20;16.93;;;7.90;99.90;;;;;;5096852;28;20277;-80
2020/12/16 08:04:02;;;;;;;24.60;16.33;;;7.90;99.90;;;;;;5096283;28;20204;-80
2020/12/16 08:06:29;;;;;;;22.20;15.37;;;7.90;99.90;;;;;;5099397;28;20226;-80
2020/12/16 08:08:55;;;;;;;24.77;16.63;;;7.90;99.90;;;;;;5105682;28;20567;-80
2020/12/16 08:11:25;;;;;;;27.80;16.97;;;7.90;99.90;;;;;;5097869;28;20680;-82
2020/12/16 08:13:52;;;;;;;26.80;16.23;;;7.90;99.90;;;;;;5097315;28;20745;-81
2020/12/16 08:16:19;;;;;;;26.83;16.33;;;7.90;99.90;;;;;;5098497;28;20635;-83
2020/12/16 08:18:47;;;;;;;30.33;20.57;;;8.00;99.90;;;;;;5096252;28;20202;-81
2020/12/16 08:21:18;;;;;;;29.03;18.43;;;8.00;99.90;;;;;;5100188;28;20205;-81
2020/12/16 08:23:44;;;;;;;25.10;16.73;;;8.00;99.90;;;;;;5105928;28;20450;-81
2020/12/16 08:26:11;;;;;;;25.27;16.67;;;8.00;99.90;;;;;;5090107;28;20214;-82
2020/12/16 08:28:37;;;;;;;25.73;17.13;;;8.00;99.90;;;;;;5084668;28;20301;-81
2020/12/16 08:31:04;;;;;;;26.50;16.03;;;8.00;99.90;;;;;;5084939;28;20202;-81
2020/12/16 08:33:33;;;;;;;24.23;14.83;;;8.00;99.90;;;;;;5094792;28;20333;-83
2020/12/16 08:36:01;;;;;;;23.10;15.80;;;8.00;99.90;;;;;;5092809;28;20472;-85
2020/12/16 08:38:29;;;;;;;23.43;15.43;;;8.00;99.90;;;;;;5091530;28;20222;-82
2020/12/16 08:40:57;;;;;;;23.33;16.27;;;8.10;99.90;;;;;;5100518;28;20289;-81
2020/12/16 08:43:27;;;;;;;22.97;15.20;;;8.10;99.90;;;;;;5104985;28;20238;-81
2020/12/16 08:46:02;;;;;;;21.57;15.30;;;8.10;99.90;;;;;;5093294;28;20286;-81
2020/12/16 08:48:29;;;;;;;23.50;14.87;;;8.10;99.90;;;;;;5085401;28;20210;-80
2020/12/16 08:51:07;;;;;;;23.97;14.73;;;8.10;99.90;;;;;;5085346;28;20550;-81
2020/12/16 08:53:48;;;;;;;21.40;16.17;;;8.20;99.90;;;;;;5084298;28;20443;-81
2020/12/16 08:56:37;;;;;;;24.37;15.90;;;8.20;99.90;;;;;;5084388;28;20322;-80
2020/12/16 08:59:10;;;;;;;23.93;16.27;;;8.20;99.90;;;;;;5088660;28;20207;-79
2020/12/16 09:01:38;;;;;;;28.07;20.13;;;8.20;99.90;;;;;;5083522;28;20187;-79
2020/12/16 09:04:06;;;;;;;43.13;36.37;;;8.30;99.90;;;;;;5083746;28;20217;-82
2020/12/16 09:06:34;;;;;;;34.43;25.83;;;8.30;99.90;;;;;;5099011;28;20202;-81
2020/12/16 09:09:00;;;;;;;24.80;17.37;;;8.40;99.90;;;;;;5104285;28;20629;-81
2020/12/16 09:11:26;;;;;;;25.60;16.53;;;8.40;99.90;;;;;;5103693;28;20294;-81
2020/12/16 09:13:59;;;;;;;21.63;15.67;;;8.40;99.90;;;;;;5103218;28;20202;-80
2020/12/16 09:16:27;;;;;;;21.83;15.17;;;8.60;99.90;;;;;;5105405;28;20194;-78
2020/12/16 09:18:53;;;;;;;23.50;16.00;;;8.70;99.90;;;;;;5108360;28;20206;-80
2020/12/16 09:21:32;;;;;;;22.70;16.40;;;8.80;99.90;;;;;;5103147;28;20203;-81
2020/12/16 09:24:01;;;;;;;24.30;16.53;;;9.00;99.90;;;;;;5088400;28;20203;-81
2020/12/16 09:26:35;;;;;;;20.90;15.30;;;9.10;99.90;;;;;;5088952;28;20293;-82
2020/12/16 09:29:02;;;;;;;22.90;16.07;;;9.20;99.90;;;;;;5088653;28;20261;-80
2020/12/16 09:31:28;;;;;;;26.77;17.37;;;9.30;99.90;;;;;;5088752;28;20213;-80
2020/12/16 09:33:55;;;;;;;20.80;15.57;;;9.50;99.90;;;;;;5088387;28;20471;-80
2020/12/16 09:36:26;;;;;;;17.23;13.93;;;9.60;99.90;;;;;;5087522;28;20202;-80
2020/12/16 09:38:57;;;;;;;16.50;13.27;;;9.70;99.90;;;;;;5088405;28;20650;-80
2020/12/16 09:41:25;;;;;;;15.67;12.70;;;9.70;99.90;;;;;;5088541;28;20207;-80
2020/12/16 09:43:51;;;;;;;14.97;12.10;;;9.70;99.90;;;;;;5088526;28;20306;-80
2020/12/16 09:46:20;;;;;;;16.03;12.40;;;9.60;99.90;;;;;;5088400;28;20199;-80
2020/12/16 09:48:58;;;;;;;17.87;13.30;;;9.60;99.90;;;;;;5088055;28;20818;-80
2020/12/16 09:51:24;;;;;;;15.73;12.67;;;9.50;99.90;;;;;;5088202;28;20286;-80
2020/12/16 09:53:51;;;;;;;14.40;12.03;;;9.50;99.90;;;;;;5088067;28;20704;-80
2020/12/16 09:56:25;;;;;;;14.47;11.33;;;9.40;99.90;;;;;;5088432;28;20215;-80
2020/12/16 09:58:53;;;;;;;15.90;12.20;;;9.40;99.90;;;;;;5096408;28;20566;-80
2020/12/16 10:01:19;;;;;;;14.67;11.77;;;9.40;99.90;;;;;;5090514;28;20281;-80
2020/12/16 10:03:48;;;;;;;15.20;11.63;;;9.30;99.90;;;;;;5096239;28;20222;-80
2020/12/16 10:06:16;;;;;;;15.17;10.60;;;9.30;99.90;;;;;;5088473;28;20709;-80
2020/12/16 10:08:44;;;;;;;13.07;10.70;;;9.20;99.90;;;;;;5093611;28;20339;-83
2020/12/16 10:11:11;;;;;;;16.30;11.60;;;9.20;99.90;;;;;;5098174;28;20717;-80
2020/12/16 10:13:39;;;;;;;13.60;11.43;;;9.20;99.90;;;;;;5098761;28;20205;-80
2020/12/16 10:16:07;;;;;;;14.90;11.77;;;9.20;99.90;;;;;;5097435;28;20735;-79
2020/12/16 10:18:34;;;;;;;11.73;10.03;;;9.20;99.90;;;;;;5094056;28;20199;-80
2020/12/16 10:21:00;;;;;;;13.23;10.03;;;9.20;99.90;;;;;;5096325;28;20236;-81
2020/12/16 10:23:26;;;;;;;9.53;8.60;;;9.30;99.90;;;;;;5098748;28;20312;-80
2020/12/16 10:25:53;;;;;;;10.63;9.63;;;9.30;99.90;;;;;;5104832;27;20195;-78
2020/12/16 10:28:21;;;;;;;16.03;14.50;;;9.30;99.90;;;;;;5088615;28;20697;-79
2020/12/16 10:30:48;;;;;;;34.73;31.33;;;9.40;99.90;;;;;;5090084;28;20199;-81
2020/12/16 10:33:15;;;;;;;12.60;11.00;;;9.40;99.90;;;;;;5087318;28;20211;-82
2020/12/16 10:35:41;;;;;;;11.90;9.53;;;9.50;99.90;;;;;;5100985;28;20213;-81
2020/12/16 10:38:08;;;;;;;10.03;9.03;;;9.50;99.90;;;;;;5106893;28;20210;-81
2020/12/16 10:40:34;;;;;;;9.70;8.73;;;9.50;99.90;;;;;;5106872;28;20198;-81
2020/12/16 10:43:02;;;;;;;10.00;9.00;;;9.40;99.90;;;;;;5107452;28;20226;-81
2020/12/16 10:45:28;;;;;;;13.00;10.43;;;9.40;99.90;;;;;;5107420;28;20342;-81
2020/12/16 10:47:59;;;;;;;11.03;9.27;;;9.40;99.90;;;;;;5107358;28;20197;-82
2020/12/16 10:50:26;;;;;;;11.47;8.90;;;9.40;99.90;;;;;;5107653;27;20198;-81
2020/12/16 10:52:52;;;;;;;9.40;8.43;;;9.40;99.90;;;;;;5101013;28;20198;-81
2020/12/16 10:55:18;;;;;;;12.00;10.43;;;9.40;99.90;;;;;;5099548;28;20680;-81
2020/12/16 10:57:46;;;;;;;11.67;9.67;;;9.30;99.90;;;;;;5092398;28;20741;-82
2020/12/16 11:00:12;;;;;;;12.07;10.13;;;9.30;99.90;;;;;;5100511;28;20210;-82
2020/12/16 11:02:38;;;;;;;11.60;10.40;;;9.30;99.90;;;;;;5109972;28;20329;-81
2020/12/16 11:05:05;;;;;;;11.30;10.10;;;9.30;99.90;;;;;;5109876;28;20225;-82
2020/12/16 11:07:31;;;;;;;10.57;9.47;;;9.30;99.90;;;;;;5110141;28;20259;-81
2020/12/16 11:09:58;;;;;;;10.60;9.17;;;9.30;99.90;;;;;;5110414;28;20210;-81
2020/12/16 11:12:24;;;;;;;12.07;10.17;;;9.30;99.90;;;;;;5104153;28;20206;-82
2020/12/16 11:14:51;;;;;;;12.00;10.07;;;9.30;99.90;;;;;;5090100;28;20289;-82
2020/12/16 11:17:18;;;;;;;13.17;10.00;;;9.30;99.90;;;;;;5089770;28;20225;-82
2020/12/16 11:19:44;;;;;;;11.60;9.80;;;9.30;99.90;;;;;;5087601;28;20209;-83
2020/12/16 11:22:11;;;;;;;12.40;10.93;;;9.30;99.90;;;;;;5090212;28;20233;-82
2020/12/16 11:24:37;;;;;;;12.33;10.27;;;9.30;99.90;;;;;;5092460;28;20210;-82
2020/12/16 11:27:04;;;;;;;12.43;10.67;;;9.30;99.90;;;;;;5110219;28;20198;-82
2020/12/16 11:29:31;;;;;;;14.57;11.57;;;9.30;99.90;;;;;;5109500;28;20205;-82
2020/12/16 11:32:01;;;;;;;15.73;11.93;;;9.30;99.90;;;;;;5110001;28;20206;-82
2020/12/16 11:34:28;;;;;;;16.80;12.07;;;9.30;99.90;;;;;;5108347;28;20210;-82
2020/12/16 11:36:56;;;;;;;15.73;11.87;;;9.30;99.90;;;;;;5107915;28;20632;-82
2020/12/16 11:39:24;;;;;;;14.90;11.90;;;9.30;99.90;;;;;;5108455;28;20368;-82
2020/12/16 11:41:52;;;;;;;13.70;11.73;;;9.40;99.90;;;;;;5109724;28;20216;-82
2020/12/16 11:44:19;;;;;;;12.73;10.70;;;9.40;99.90;;;;;;5109980;28;20297;-82
2020/12/16 11:46:46;;;;;;;12.83;10.50;;;9.40;99.90;;;;;;5109423;28;20210;-83
2020/12/16 11:49:15;;;;;;;11.87;10.40;;;9.40;99.90;;;;;;5108726;28;20262;-82
2020/12/16 11:51:41;;;;;;;13.60;11.80;;;9.40;99.90;;;;;;5089122;28;20202;-82
2020/12/16 11:54:08;;;;;;;12.70;11.37;;;9.40;99.90;;;;;;5088554;28;20339;-83
2020/12/16 11:56:35;;;;;;;14.10;11.07;;;9.40;99.90;;;;;;5091392;28;20203;-79
2020/12/16 11:59:02;;;;;;;21.50;19.40;;;9.40;99.90;;;;;;5097076;28;20216;-79
2020/12/16 12:01:28;;;;;;;23.13;20.73;;;9.50;99.90;;;;;;5091257;28;20646;-79
2020/12/16 12:03:54;;;;;;;13.53;11.43;;;9.50;99.90;;;;;;5094428;28;20234;-82
2020/12/16 12:06:22;;;;;;;11.47;10.27;;;9.50;99.90;;;;;;5089099;28;20290;-82
2020/12/16 12:08:48;;;;;;;19.07;11.73;;;9.50;99.90;;;;;;5088513;28;20317;-83
2020/12/16 12:11:16;;;;;;;13.47;9.97;;;9.60;99.90;;;;;;5099694;28;20294;-82
2020/12/16 12:13:42;;;;;;;10.40;9.23;;;9.60;99.90;;;;;;5106672;28;20202;-82
2020/12/16 12:16:09;;;;;;;14.93;9.87;;;9.60;99.90;;;;;;5091391;28;20202;-82
2020/12/16 12:18:36;;;;;;;27.80;15.83;;;9.60;99.90;;;;;;5107870;28;20259;-82
2020/12/16 12:21:02;;;;;;;12.93;10.13;;;9.60;99.90;;;;;;5108017;28;20227;-81
2020/12/16 12:23:29;;;;;;;9.53;8.53;;;9.60;99.90;;;;;;5108385;28;20328;-82
2020/12/16 12:25:56;;;;;;;10.17;8.93;;;9.60;99.90;;;;;;5108244;28;20741;-82
2020/12/16 12:28:22;;;;;;;9.47;8.60;;;9.60;99.90;;;;;;5102588;28;20662;-82
2020/12/16 12:30:49;;;;;;;8.90;8.00;;;9.60;99.90;;;;;;5097164;28;20281;-82
2020/12/16 12:33:15;;;;;;;9.23;8.43;;;9.60;99.90;;;;;;5108106;28;20202;-82
2020/12/16 12:35:41;;;;;;;10.20;9.20;;;9.70;99.90;;;;;;5108100;28;20217;-81
2020/12/16 12:38:08;;;;;;;10.10;9.10;;;9.70;99.90;;;;;;5091112;28;20301;-82
2020/12/16 12:40:35;;;;;;;10.20;8.67;;;9.70;99.90;;;;;;5100928;28;20289;-82
2020/12/16 12:43:01;;;;;;;14.27;11.40;;;9.70;99.90;;;;;;5087291;28;20244;-82